• Join FlightAware (Why Join?)
  • Login
  • US Flag 
11:51PM EDT


 

Airport Tracker/Info


-or-


 

Live Flight TrackerFlight Track Log ✈ N5167L ✈ 23-Feb-2014 ✈ KHOT - KHRO

Flight Track Log - Related Links

Times and Time Zones

All times are in EST time to prevent confusion due to time zone crossing. See the N5167L flight status page for this flight to view local times or setup timezone preferences in your user account.

Time Position Orientation Groundspeed Altitude Reporting Facility
EST Latitude Longitude Course Direction KTS MPH feet Rate Location/Type
11:59AM 34.5150 -93.1158 351° North 90 104 2,100  Level Memphis Center
12:00PM 34.5392 -93.1133 North 83 96 2,700 480 Climbing Memphis Center
12:01PM 34.5625 -93.1050 16° North 83 96 3,200 480 Climbing Memphis Center
12:02PM 34.5936 -93.1017 North 87 100 3,700 420 Climbing Memphis Center
12:03PM 34.6203 -93.1022 359° North 90 104 4,100 420 Climbing Memphis Center
12:04PM 34.6355 -93.0904 351° North  Level FlightAware Approximate
12:04PM 34.6464 -93.1028 359° North 91 105 4,600  Level Memphis Center
12:05PM 34.6689 -93.0971 351° North  Level FlightAware Approximate
12:06PM 34.6733 -93.0986 North 94 108 5,000  Level Memphis Center
12:07PM 34.7011 -93.0994 359° North 95 109 5,500 360 Climbing Memphis Center
12:08PM 34.7294 -93.1039 353° North 97 112 5,800 240 Climbing Memphis Center
12:09PM 34.7603 -93.1039 360° North 104 120 6,000 120 Climbing Memphis Center
12:10PM 34.8019 -93.1022 North 121 139 6,100  Climbing Memphis Center
12:11PM 34.8339 -93.1086 351° North 121 139 6,100  Level Memphis Center
12:12PM 34.8681 -93.1078 North 121 139 6,100  Level Memphis Center
12:13PM 34.9006 -93.1094 358° North 120 138 6,100  Level Memphis Center
12:14PM 34.9344 -93.1108 358° North 120 138 6,100  Level Memphis Center
12:15PM 34.9683 -93.1125 358° North 120 138 6,100  Level Memphis Center
12:16PM 35.0025 -93.1147 357° North 120 138 6,100  Level Memphis Center
12:17PM 35.0436 -93.1144 360° North 120 138 6,100  Level Memphis Center
12:18PM 35.0781 -93.1136 North 121 139 6,100  Level Memphis Center
12:19PM 35.1131 -93.1167 356° North 121 139 6,100  Level Memphis Center
12:20PM 35.1481 -93.1197 356° North 121 139 6,100  Level Memphis Center
12:21PM 35.1839 -93.1200 360° North 125 144 6,100  Level Memphis Center
12:22PM 35.2175 -93.1206 359° North 125 144 6,100  Level Memphis Center
12:23PM 35.2506 -93.1244 355° North 124 143 6,100 -60 Level Memphis Center
12:24PM 35.2925 -93.1236 North 124 143 6,000 -60 Descending Memphis Center
12:25PM 35.3269 -93.1247 358° North 124 143 6,000  Level Memphis Center
12:26PM 35.3597 -93.1297 353° North 124 143 6,100  Climbing Memphis Center
12:27PM 35.3911 -93.1353 352° North 118 136 6,000  Descending Memphis Center
12:28PM 35.4247 -93.1361 359° North 119 137 6,200  Climbing Memphis Center
12:29PM 35.4603 -93.1372 359° North 121 139 6,100 -120 Descending Memphis Center
12:30PM 35.4956 -93.1417 354° North 123 142 6,000 -60 Descending Memphis Center
12:31PM 35.5308 -93.1411 North 123 142 6,000  Level Memphis Center
12:32PM 35.5728 -93.1414 360° North 123 142 6,000  Level Memphis Center
12:33PM 35.6047 -93.1400 North 123 142 6,000  Level Memphis Center
12:34PM 35.6397 -93.1372 North 123 142 6,100  Climbing Memphis Center
12:35PM 35.6744 -93.1386 358° North 123 142 6,100  Level Memphis Center
12:36PM 35.7103 -93.1386 360° North 124 143 6,100  Level Memphis Center
12:37PM 35.7453 -93.1411 357° North 124 143 6,100 -60 Level Memphis Center
12:38PM 35.7797 -93.1428 358° North 124 143 6,000 -300 Descending Memphis Center
12:39PM 35.8233 -93.1447 358° North 125 144 5,600 -420 Descending Memphis Center
12:41PM 35.8578 -93.1464 358° North 125 144 5,200 -240 Descending Memphis Center
12:43PM 35.9217 -93.1486 358° North 118 136 5,000 -120 Descending Memphis Center
12:44PM 35.9528 -93.1500 358° North 117 135 5,000  Level Memphis Center
12:45PM 35.9828 -93.1522 357° North 113 130 5,000  Level Memphis Center
12:46PM 36.0128 -93.1517 North 111 128 5,000  Level Memphis Center
12:47PM 36.0489 -93.1522 359° North 111 128 5,000  Level Memphis Center
12:48PM 36.0783 -93.1531 359° North 110 127 5,000  Level Memphis Center
12:49PM 36.1081 -93.1558 356° North 110 127 5,000 -300 Level Memphis Center
12:50PM 36.1369 -93.1592 355° North 107 123 4,400 -360 Descending Memphis Center
12:51PM 36.1669 -93.1625 355° North 107 123 4,300 -120 Descending Memphis Center
12:53PM 36.2207 -93.1500 North  Level FlightAware Approximate